Garrisonville, Virginia
Current Conditions -  °F | °C
As of 9:55 PM on Thursday 18 Dec 2014 (Local Time) from KRMN Reporting Station
Scattered Clouds Scattered Clouds  
Wind Chill: 29°   Ceiling: Unl
Heat Index: 34°   Visibility: 10mi
Dew Point: 21°   Wind: 6mph
Humidity: 59%   Direction: 350°N
Pressure: 30.14"   Gusts: NA
Location:  38.48°N, 77.43°W
Report Text: KRMN 190255Z AUTO 35005KT 10SM SCT095 SCT120 01/M06 A3014 RMK AO2 T00121060
Loading
Personal Weather Stations






























Interactive Weather Map New forecast layout! Learn more

10-Day Weather Forecast

Advertisements
Track Severe Weather on mobile